X  CloseMetar Aviation Weather Data     EGGD Bristol International

Temperature

10°C Temperature

3°C Dewpoint

62% Humidity



Wind

19 KM/H

12 MPH

 5 M/S

10 KTS



90°
Due East
Current Conditions

Clear Clear
Pressure 1028.92 (hPa) - 30.38 (in)
Visibility 6.2 (mi) - 10 (km)
Airport
Airport-code EGGD

Location Bristol International 9 (mi)

Metar:
EGGD 290220Z AUTO 09010KT 9999 NCD 10/03 Q1029

Time: 2020-05-29 03:20